sensor_id;sensor_type;location;lat;lon;timestamp;pressure;altitude;pressure_sealevel;temperature;humidity
15670;BME280;18524;45.190;5.732;2022-10-20T00:01:07;99345.19;;;16.62;100.00
15670;BME280;18524;45.190;5.732;2022-10-20T00:06:16;99336.38;;;16.53;100.00
15670;BME280;18524;45.190;5.732;2022-10-20T00:11:08;99347.63;;;16.55;100.00
15670;BME280;18524;45.190;5.732;2022-10-20T00:15:59;99338.44;;;16.42;100.00
15670;BME280;18524;45.190;5.732;2022-10-20T00:20:50;99349.28;;;16.31;100.00
15670;BME280;18524;45.190;5.732;2022-10-20T00:25:40;99344.28;;;16.27;100.00
15670;BME280;18524;45.190;5.732;2022-10-20T00:30:30;99349.75;;;16.26;100.00
15670;BME280;18524;45.190;5.732;2022-10-20T00:35:22;99343.22;;;16.38;100.00
15670;BME280;18524;45.190;5.732;2022-10-20T00:40:12;99345.25;;;16.44;100.00
15670;BME280;18524;45.190;5.732;2022-10-20T00:45:05;99341.19;;;16.32;100.00
15670;BME280;18524;45.190;5.732;2022-10-20T00:50:26;99342.25;;;16.39;100.00
15670;BME280;18524;45.190;5.732;2022-10-20T00:55:18;99346.13;;;16.53;100.00
15670;BME280;18524;45.190;5.732;2022-10-20T01:00:10;99341.94;;;16.42;100.00
15670;BME280;18524;45.190;5.732;2022-10-20T01:05:00;99335.53;;;16.53;100.00
15670;BME280;18524;45.190;5.732;2022-10-20T01:09:51;99344.78;;;16.49;100.00
15670;BME280;18524;45.190;5.732;2022-10-20T01:14:51;99341.41;;;16.39;100.00
15670;BME280;18524;45.190;5.732;2022-10-20T01:24:54;99301.31;;;16.34;100.00
15670;BME280;18524;45.190;5.732;2022-10-20T01:30:24;99310.03;;;16.26;100.00
15670;BME280;18524;45.190;5.732;2022-10-20T01:35:22;99302.09;;;16.26;100.00
15670;BME280;18524;45.190;5.732;2022-10-20T01:40:31;99285.03;;;16.20;100.00
15670;BME280;18524;45.190;5.732;2022-10-20T01:45:26;99283.81;;;16.07;100.00
15670;BME280;18524;45.190;5.732;2022-10-20T01:50:18;99273.88;;;16.09;100.00
15670;BME280;18524;45.190;5.732;2022-10-20T01:55:16;99269.59;;;16.08;100.00
15670;BME280;18524;45.190;5.732;2022-10-20T02:00:08;99275.88;;;16.07;100.00
15670;BME280;18524;45.190;5.732;2022-10-20T02:10:20;99254.25;;;15.93;100.00
15670;BME280;18524;45.190;5.732;2022-10-20T02:15:16;99256.94;;;15.76;100.00
15670;BME280;18524;45.190;5.732;2022-10-20T02:20:09;99245.19;;;15.70;100.00
15670;BME280;18524;45.190;5.732;2022-10-20T02:25:00;99245.44;;;15.85;100.00
15670;BME280;18524;45.190;5.732;2022-10-20T02:29:55;99244.63;;;15.84;100.00
15670;BME280;18524;45.190;5.732;2022-10-20T02:34:47;99244.34;;;15.95;100.00
15670;BME280;18524;45.190;5.732;2022-10-20T02:39:37;99241.09;;;15.76;100.00
15670;BME280;18524;45.190;5.732;2022-10-20T02:44:28;99249.13;;;15.66;100.00
15670;BME280;18524;45.190;5.732;2022-10-20T02:49:18;99244.56;;;15.58;100.00
15670;BME280;18524;45.190;5.732;2022-10-20T02:54:10;99249.91;;;15.49;100.00
15670;BME280;18524;45.190;5.732;2022-10-20T02:59:00;99247.06;;;15.42;100.00
15670;BME280;18524;45.190;5.732;2022-10-20T03:03:51;99261.16;;;15.51;100.00
15670;BME280;18524;45.190;5.732;2022-10-20T03:08:44;99248.63;;;15.53;100.00
15670;BME280;18524;45.190;5.732;2022-10-20T03:13:35;99250.81;;;15.57;100.00
15670;BME280;18524;45.190;5.732;2022-10-20T03:18:25;99244.19;;;15.71;100.00
15670;BME280;18524;45.190;5.732;2022-10-20T03:23:15;99240.78;;;15.79;100.00
15670;BME280;18524;45.190;5.732;2022-10-20T03:28:06;99261.16;;;15.86;100.00
15670;BME280;18524;45.190;5.732;2022-10-20T03:32:56;99265.97;;;15.91;100.00
15670;BME280;18524;45.190;5.732;2022-10-20T03:37:46;99277.75;;;15.97;100.00
15670;BME280;18524;45.190;5.732;2022-10-20T03:42:37;99270.22;;;16.02;100.00
15670;BME280;18524;45.190;5.732;2022-10-20T03:47:27;99269.59;;;16.08;100.00
15670;BME280;18524;45.190;5.732;2022-10-20T03:52:17;99286.84;;;16.20;100.00
15670;BME280;18524;45.190;5.732;2022-10-20T03:57:08;99286.91;;;16.28;100.00
15670;BME280;18524;45.190;5.732;2022-10-20T04:01:58;99280.97;;;16.34;100.00
15670;BME280;18524;45.190;5.732;2022-10-20T04:06:49;99285.19;;;16.19;100.00
15670;BME280;18524;45.190;5.732;2022-10-20T04:11:39;99292.63;;;16.15;100.00
15670;BME280;18524;45.190;5.732;2022-10-20T04:16:29;99296.66;;;16.02;100.00
15670;BME280;18524;45.190;5.732;2022-10-20T04:21:20;99303.69;;;15.93;100.00
15670;BME280;18524;45.190;5.732;2022-10-20T04:26:13;99309.81;;;15.93;100.00
15670;BME280;18524;45.190;5.732;2022-10-20T04:31:04;99316.03;;;15.84;100.00
15670;BME280;18524;45.190;5.732;2022-10-20T04:36:00;99309.38;;;15.80;100.00
15670;BME280;18524;45.190;5.732;2022-10-20T04:40:57;99311.56;;;15.85;100.00
15670;BME280;18524;45.190;5.732;2022-10-20T04:45:48;99324.41;;;15.80;100.00
15670;BME280;18524;45.190;5.732;2022-10-20T04:50:38;99326.16;;;15.71;100.00
15670;BME280;18524;45.190;5.732;2022-10-20T04:55:28;99319.59;;;15.75;100.00
15670;BME280;18524;45.190;5.732;2022-10-20T05:00:19;99317.25;;;15.72;100.00
15670;BME280;18524;45.190;5.732;2022-10-20T05:05:09;99325.03;;;15.74;100.00
15670;BME280;18524;45.190;5.732;2022-10-20T05:10:00;99325.47;;;15.87;100.00
15670;BME280;18524;45.190;5.732;2022-10-20T05:14:50;99319.88;;;15.90;100.00
15670;BME280;18524;45.190;5.732;2022-10-20T05:19:40;99325.94;;;15.82;100.00
15670;BME280;18524;45.190;5.732;2022-10-20T05:24:31;99325.63;;;15.85;100.00
15670;BME280;18524;45.190;5.732;2022-10-20T05:29:21;99321.97;;;15.86;100.00
15670;BME280;18524;45.190;5.732;2022-10-20T05:34:11;99313.44;;;15.92;100.00
15670;BME280;18524;45.190;5.732;2022-10-20T05:39:02;99311.47;;;15.94;100.00
15670;BME280;18524;45.190;5.732;2022-10-20T05:43:55;99307.84;;;15.95;100.00
15670;BME280;18524;45.190;5.732;2022-10-20T05:48:46;99311.63;;;15.93;100.00
15670;BME280;18524;45.190;5.732;2022-10-20T05:53:36;99309.66;;;15.95;100.00
15670;BME280;18524;45.190;5.732;2022-10-20T05:58:29;99319.56;;;15.93;100.00
15670;BME280;18524;45.190;5.732;2022-10-20T06:03:19;99333.09;;;15.90;100.00
15670;BME280;18524;45.190;5.732;2022-10-20T06:08:09;99331.59;;;15.87;100.00
15670;BME280;18524;45.190;5.732;2022-10-20T06:13:00;99329.63;;;15.89;100.00
15670;BME280;18524;45.190;5.732;2022-10-20T06:17:50;99350.25;;;15.86;100.00
15670;BME280;18524;45.190;5.732;2022-10-20T06:43:32;99356.13;;;16.15;100.00
15670;BME280;18524;45.190;5.732;2022-10-20T06:48:23;99359.34;;;16.27;100.00
15670;BME280;18524;45.190;5.732;2022-10-20T06:53:13;99359.88;;;16.31;100.00
15670;BME280;18524;45.190;5.732;2022-10-20T06:58:04;99364.00;;;16.33;100.00
15670;BME280;18524;45.190;5.732;2022-10-20T07:02:54;99371.44;;;16.30;100.00
15670;BME280;18524;45.190;5.732;2022-10-20T07:07:44;99376.56;;;16.31;100.00
15670;BME280;18524;45.190;5.732;2022-10-20T07:12:35;99363.66;;;16.28;100.00
15670;BME280;18524;45.190;5.732;2022-10-20T07:17:25;99372.63;;;16.35;100.00
15670;BME280;18524;45.190;5.732;2022-10-20T07:22:15;99368.72;;;16.39;100.00
15670;BME280;18524;45.190;5.732;2022-10-20T07:27:06;99372.75;;;16.51;100.00
15670;BME280;18524;45.190;5.732;2022-10-20T07:31:56;99384.91;;;16.62;100.00
15670;BME280;18524;45.190;5.732;2022-10-20T07:36:46;99397.81;;;16.65;100.00
15670;BME280;18524;45.190;5.732;2022-10-20T07:41:38;99399.34;;;16.68;100.00
15670;BME280;18524;45.190;5.732;2022-10-20T07:46:29;99416.31;;;16.75;100.00
15670;BME280;18524;45.190;5.732;2022-10-20T07:51:28;99424.00;;;16.86;100.00
15670;BME280;18524;45.190;5.732;2022-10-20T07:56:19;99443.03;;;16.90;100.00
15670;BME280;18524;45.190;5.732;2022-10-20T08:01:10;99425.72;;;17.03;100.00
15670;BME280;18524;45.190;5.732;2022-10-20T08:06:02;99425.41;;;17.06;100.00
15670;BME280;18524;45.190;5.732;2022-10-20T08:10:53;99387.03;;;17.10;100.00
15670;BME280;18524;45.190;5.732;2022-10-20T08:15:43;99388.72;;;17.19;99.21
15670;BME280;18524;45.190;5.732;2022-10-20T08:20:34;99370.81;;;17.13;99.62
15670;BME280;18524;45.190;5.732;2022-10-20T08:25:24;99371.97;;;17.19;99.60
15670;BME280;18524;45.190;5.732;2022-10-20T08:30:15;99367.03;;;17.24;99.07
15670;BME280;18524;45.190;5.732;2022-10-20T08:35:06;99350.28;;;17.24;99.33
15670;BME280;18524;45.190;5.732;2022-10-20T08:39:56;99351.47;;;17.29;100.00
15670;BME280;18524;45.190;5.732;2022-10-20T08:44:47;99347.81;;;17.30;100.00
15670;BME280;18524;45.190;5.732;2022-10-20T08:49:38;99339.88;;;17.38;100.00
15670;BME280;18524;45.190;5.732;2022-10-20T08:54:31;99326.63;;;17.46;100.00
15670;BME280;18524;45.190;5.732;2022-10-20T09:04:25;99319.84;;;17.44;100.00
15670;BME280;18524;45.190;5.732;2022-10-20T09:09:19;99303.78;;;17.45;100.00
15670;BME280;18524;45.190;5.732;2022-10-20T09:14:11;99291.00;;;17.41;100.00
15670;BME280;18524;45.190;5.732;2022-10-20T09:19:02;99301.44;;;17.42;99.17
15670;BME280;18524;45.190;5.732;2022-10-20T09:23:55;99292.00;;;17.40;99.55
15670;BME280;18524;45.190;5.732;2022-10-20T09:28:50;99273.09;;;17.27;100.00
15670;BME280;18524;45.190;5.732;2022-10-20T09:33:51;99283.53;;;17.36;99.96
15670;BME280;18524;45.190;5.732;2022-10-20T09:38:44;99282.41;;;17.63;98.16
15670;BME280;18524;45.190;5.732;2022-10-20T09:43:58;99249.44;;;17.66;98.72
15670;BME280;18524;45.190;5.732;2022-10-20T09:48:49;99253.94;;;17.73;98.82
15670;BME280;18524;45.190;5.732;2022-10-20T09:54:14;99253.28;;;17.88;97.99
15670;BME280;18524;45.190;5.732;2022-10-20T09:59:02;99255.38;;;18.17;96.46
15670;BME280;18524;45.190;5.732;2022-10-20T10:03:56;99255.81;;;18.36;94.08
15670;BME280;18524;45.190;5.732;2022-10-20T10:08:50;99241.34;;;18.47;93.88
15670;BME280;18524;45.190;5.732;2022-10-20T10:13:43;99239.81;;;18.53;93.42
15670;BME280;18524;45.190;5.732;2022-10-20T10:18:36;99223.22;;;18.51;93.29
15670;BME280;18524;45.190;5.732;2022-10-20T10:23:29;99236.00;;;18.55;93.77
15670;BME280;18524;45.190;5.732;2022-10-20T10:28:37;99210.44;;;18.54;93.53
15670;BME280;18524;45.190;5.732;2022-10-20T10:33:28;99215.25;;;18.59;93.56
15670;BME280;18524;45.190;5.732;2022-10-20T10:38:19;99215.63;;;18.48;94.94
15670;BME280;18524;45.190;5.732;2022-10-20T10:59:19;99187.44;;;18.38;96.93
15670;BME280;18524;45.190;5.732;2022-10-20T11:25:33;99146.75;;;18.77;94.96
15670;BME280;18524;45.190;5.732;2022-10-20T11:30:27;99137.19;;;18.68;95.84
15670;BME280;18524;45.190;5.732;2022-10-20T11:40:42;99149.91;;;18.81;95.97
15670;BME280;18524;45.190;5.732;2022-10-20T11:45:53;99139.44;;;18.79;95.18
15670;BME280;18524;45.190;5.732;2022-10-20T11:51:07;99152.38;;;18.82;94.83
15670;BME280;18524;45.190;5.732;2022-10-20T12:11:35;99136.72;;;18.87;94.64
15670;BME280;18524;45.190;5.732;2022-10-20T12:17:03;99147.16;;;18.97;93.71
15670;BME280;18524;45.190;5.732;2022-10-20T12:21:58;99165.59;;;18.90;95.10
15670;BME280;18524;45.190;5.732;2022-10-20T12:37:18;99161.75;;;18.93;93.64
15670;BME280;18524;45.190;5.732;2022-10-20T12:42:32;99156.72;;;19.06;91.68
15670;BME280;18524;45.190;5.732;2022-10-20T12:47:26;99150.91;;;19.02;93.21
15670;BME280;18524;45.190;5.732;2022-10-20T12:52:23;99139.75;;;19.07;95.86
15670;BME280;18524;45.190;5.732;2022-10-20T12:57:35;99141.59;;;19.07;96.57
15670;BME280;18524;45.190;5.732;2022-10-20T13:02:43;99122.53;;;19.18;96.96
15670;BME280;18524;45.190;5.732;2022-10-20T13:12:39;99122.66;;;19.24;97.31
15670;BME280;18524;45.190;5.732;2022-10-20T13:17:41;99109.41;;;19.39;96.83
15670;BME280;18524;45.190;5.732;2022-10-20T13:22:43;99109.25;;;19.55;94.45
15670;BME280;18524;45.190;5.732;2022-10-20T13:27:35;99127.44;;;19.66;91.36
15670;BME280;18524;45.190;5.732;2022-10-20T13:37:55;99117.75;;;19.74;92.65
15670;BME280;18524;45.190;5.732;2022-10-20T13:48:14;99107.16;;;20.24;84.38
15670;BME280;18524;45.190;5.732;2022-10-20T13:58:13;99089.59;;;20.45;80.94
15670;BME280;18524;45.190;5.732;2022-10-20T14:03:17;99079.91;;;20.58;78.43
15670;BME280;18524;45.190;5.732;2022-10-20T14:08:10;99077.75;;;20.69;76.36
15670;BME280;18524;45.190;5.732;2022-10-20T14:13:01;99069.81;;;20.75;75.11
15670;BME280;18524;45.190;5.732;2022-10-20T14:18:00;99086.13;;;20.87;73.15
15670;BME280;18524;45.190;5.732;2022-10-20T14:22:52;99076.34;;;20.94;72.82
15670;BME280;18524;45.190;5.732;2022-10-20T14:27:43;99072.09;;;21.00;73.93
15670;BME280;18524;45.190;5.732;2022-10-20T14:32:39;99070.69;;;21.04;75.01
15670;BME280;18524;45.190;5.732;2022-10-20T14:37:38;99049.09;;;20.99;76.26
15670;BME280;18524;45.190;5.732;2022-10-20T14:42:30;99037.19;;;20.95;76.24
15670;BME280;18524;45.190;5.732;2022-10-20T14:47:22;99049.09;;;20.99;71.57
15670;BME280;18524;45.190;5.732;2022-10-20T15:02:02;99019.63;;;21.28;66.13
15670;BME280;18524;45.190;5.732;2022-10-20T15:07:22;99025.38;;;21.32;67.41
15670;BME280;18524;45.190;5.732;2022-10-20T15:12:31;99028.91;;;21.39;75.84
15670;BME280;18524;45.190;5.732;2022-10-20T15:17:33;99037.50;;;21.13;78.92
15670;BME280;18524;45.190;5.732;2022-10-20T15:22:24;99042.50;;;20.95;80.62
15670;BME280;18524;45.190;5.732;2022-10-20T15:27:16;99035.47;;;20.87;83.95
15670;BME280;18524;45.190;5.732;2022-10-20T15:32:07;99032.25;;;20.70;85.28
15670;BME280;18524;45.190;5.732;2022-10-20T15:36:58;99021.72;;;20.62;86.56
15670;BME280;18524;45.190;5.732;2022-10-20T15:41:48;99028.56;;;20.71;86.24
15670;BME280;18524;45.190;5.732;2022-10-20T15:46:39;99031.59;;;20.68;85.45
15670;BME280;18524;45.190;5.732;2022-10-20T15:51:32;99041.06;;;20.35;86.23
15670;BME280;18524;45.190;5.732;2022-10-20T15:56:23;99043.88;;;20.26;87.20
15670;BME280;18524;45.190;5.732;2022-10-20T16:01:14;99055.00;;;20.15;88.65
15670;BME280;18524;45.190;5.732;2022-10-20T16:06:06;99046.19;;;20.00;89.80
15670;BME280;18524;45.190;5.732;2022-10-20T16:10:56;99048.03;;;19.99;91.55
15670;BME280;18524;45.190;5.732;2022-10-20T16:15:47;99048.59;;;19.95;91.15
15670;BME280;18524;45.190;5.732;2022-10-20T16:20:37;99052.84;;;19.75;93.72
15670;BME280;18524;45.190;5.732;2022-10-20T16:25:27;99044.22;;;19.58;96.23
15670;BME280;18524;45.190;5.732;2022-10-20T16:30:18;99033.47;;;19.51;97.17
15670;BME280;18524;45.190;5.732;2022-10-20T16:35:09;99046.94;;;19.50;97.35
15670;BME280;18524;45.190;5.732;2022-10-20T16:39:59;99028.03;;;19.30;97.73
15670;BME280;18524;45.190;5.732;2022-10-20T16:44:50;99037.91;;;19.21;97.73
15670;BME280;18524;45.190;5.732;2022-10-20T16:49:40;99029.47;;;19.03;98.76
15670;BME280;18524;45.190;5.732;2022-10-20T16:54:30;99026.03;;;18.94;99.03
15670;BME280;18524;45.190;5.732;2022-10-20T16:59:21;99040.34;;;18.93;99.21
15670;BME280;18524;45.190;5.732;2022-10-20T17:04:11;99027.78;;;18.87;99.08
15670;BME280;18524;45.190;5.732;2022-10-20T17:09:02;99041.78;;;18.81;99.63
15670;BME280;18524;45.190;5.732;2022-10-20T17:13:53;99043.78;;;18.79;99.25
15670;BME280;18524;45.190;5.732;2022-10-20T17:18:44;99029.31;;;18.82;99.32
15670;BME280;18524;45.190;5.732;2022-10-20T17:23:36;99008.06;;;18.82;98.92
15670;BME280;18524;45.190;5.732;2022-10-20T17:28:28;99009.22;;;18.64;100.00
15670;BME280;18524;45.190;5.732;2022-10-20T17:33:19;99030.19;;;18.51;100.00
15670;BME280;18524;45.190;5.732;2022-10-20T17:38:09;99013.22;;;18.52;100.00
15670;BME280;18524;45.190;5.732;2022-10-20T17:43:00;99013.22;;;18.52;100.00
15670;BME280;18524;45.190;5.732;2022-10-20T17:47:50;99032.47;;;18.62;100.00
15670;BME280;18524;45.190;5.732;2022-10-20T17:52:42;99024.22;;;18.49;100.00
15670;BME280;18524;45.190;5.732;2022-10-20T17:57:32;98997.78;;;18.56;100.00
15670;BME280;18524;45.190;5.732;2022-10-20T18:02:23;99001.59;;;18.53;100.00
15670;BME280;18524;45.190;5.732;2022-10-20T18:07:13;99002.84;;;18.42;100.00
15670;BME280;18524;45.190;5.732;2022-10-20T18:12:03;99021.38;;;18.51;100.00
15670;BME280;18524;45.190;5.732;2022-10-20T18:16:54;99037.03;;;18.46;98.94
15670;BME280;18524;45.190;5.732;2022-10-20T18:21:44;99037.44;;;18.34;100.00
15670;BME280;18524;45.190;5.732;2022-10-20T18:26:36;99022.50;;;18.33;100.00
15670;BME280;18524;45.190;5.732;2022-10-20T18:31:28;99031.47;;;18.32;99.52
15670;BME280;18524;45.190;5.732;2022-10-20T18:36:19;99011.72;;;18.35;99.05
15670;BME280;18524;45.190;5.732;2022-10-20T18:41:19;99023.88;;;18.29;99.38
15670;BME280;18524;45.190;5.732;2022-10-20T18:46:10;99023.44;;;18.40;98.00
15670;BME280;18524;45.190;5.732;2022-10-20T18:51:01;98988.94;;;18.40;96.90
15670;BME280;18524;45.190;5.732;2022-10-20T19:01:00;98982.81;;;18.63;93.26
15670;BME280;18524;45.190;5.732;2022-10-20T19:05:59;98993.47;;;18.55;93.87
15670;BME280;18524;45.190;5.732;2022-10-20T19:10:50;98984.13;;;18.67;93.21
15670;BME280;18524;45.190;5.732;2022-10-20T19:15:41;99002.44;;;18.54;94.06
15670;BME280;18524;45.190;5.732;2022-10-20T19:20:31;99015.59;;;18.47;95.00
15670;BME280;18524;45.190;5.732;2022-10-20T19:25:21;98996.47;;;18.52;94.86
15670;BME280;18524;45.190;5.732;2022-10-20T19:30:12;99028.88;;;18.47;95.86
15670;BME280;18524;45.190;5.732;2022-10-20T19:35:03;99004.09;;;18.32;97.18
15670;BME280;18524;45.190;5.732;2022-10-20T19:39:53;98982.09;;;18.23;98.22
15670;BME280;18524;45.190;5.732;2022-10-20T19:44:44;98972.25;;;18.32;97.87
15670;BME280;18524;45.190;5.732;2022-10-20T19:49:35;98978.13;;;18.19;98.66
15670;BME280;18524;45.190;5.732;2022-10-20T19:54:26;98969.50;;;18.17;98.53
15670;BME280;18524;45.190;5.732;2022-10-20T19:59:17;98951.38;;;18.21;98.28
15670;BME280;18524;45.190;5.732;2022-10-20T20:04:07;98974.00;;;18.17;99.26
15670;BME280;18524;45.190;5.732;2022-10-20T20:09:02;98960.53;;;18.18;98.58
15670;BME280;18524;45.190;5.732;2022-10-20T20:13:56;98969.84;;;18.14;99.16
15670;BME280;18524;45.190;5.732;2022-10-20T20:18:47;98955.22;;;18.18;99.24
15670;BME280;18524;45.190;5.732;2022-10-20T20:23:38;98954.94;;;18.13;100.00
15670;BME280;18524;45.190;5.732;2022-10-20T20:28:30;98958.66;;;18.04;100.00
15670;BME280;18524;45.190;5.732;2022-10-20T20:33:20;98971.56;;;18.07;100.00
15670;BME280;18524;45.190;5.732;2022-10-20T20:38:10;98971.63;;;17.99;100.00
15670;BME280;18524;45.190;5.732;2022-10-20T20:43:01;98982.59;;;17.96;100.00
15670;BME280;18524;45.190;5.732;2022-10-20T20:47:51;98981.53;;;18.05;100.00
15670;BME280;18524;45.190;5.732;2022-10-20T20:52:41;98968.25;;;18.05;100.00
15670;BME280;18524;45.190;5.732;2022-10-20T20:57:32;98971.22;;;18.10;100.00
15670;BME280;18524;45.190;5.732;2022-10-20T21:02:22;98980.53;;;18.06;100.00
15670;BME280;18524;45.190;5.732;2022-10-20T21:07:13;98975.00;;;18.16;100.00
15670;BME280;18524;45.190;5.732;2022-10-20T21:12:03;98986.03;;;18.04;100.00
15670;BME280;18524;45.190;5.732;2022-10-20T21:16:53;99030.59;;;18.09;100.00
15670;BME280;18524;45.190;5.732;2022-10-20T21:21:46;99034.22;;;18.16;100.00
15670;BME280;18524;45.190;5.732;2022-10-20T21:26:39;99059.16;;;18.07;100.00
15670;BME280;18524;45.190;5.732;2022-10-20T21:31:30;99057.69;;;18.04;100.00
15670;BME280;18524;45.190;5.732;2022-10-20T21:36:21;99047.59;;;18.00;100.00
15670;BME280;18524;45.190;5.732;2022-10-20T21:41:21;99045.47;;;18.18;98.93
15670;BME280;18524;45.190;5.732;2022-10-20T21:51:22;99022.44;;;19.25;78.77
15670;BME280;18524;45.190;5.732;2022-10-20T21:56:13;99027.69;;;19.48;77.53
15670;BME280;18524;45.190;5.732;2022-10-20T22:01:23;99023.66;;;19.66;75.81
15670;BME280;18524;45.190;5.732;2022-10-20T22:06:15;99006.03;;;19.80;73.51
15670;BME280;18524;45.190;5.732;2022-10-20T22:11:12;99002.06;;;19.91;72.11
15670;BME280;18524;45.190;5.732;2022-10-20T22:16:07;98981.69;;;19.98;71.32
15670;BME280;18524;45.190;5.732;2022-10-20T22:21:24;98969.53;;;20.10;69.65
15670;BME280;18524;45.190;5.732;2022-10-20T22:26:15;98971.25;;;20.18;69.31
15670;BME280;18524;45.190;5.732;2022-10-20T22:31:06;98964.41;;;20.30;68.21
15670;BME280;18524;45.190;5.732;2022-10-20T22:35:56;98955.91;;;20.41;67.39
15670;BME280;18524;45.190;5.732;2022-10-20T22:40:46;98956.41;;;20.45;66.87
15670;BME280;18524;45.190;5.732;2022-10-20T22:45:37;98965.91;;;20.54;66.02
15670;BME280;18524;45.190;5.732;2022-10-20T22:50:27;98933.16;;;20.60;65.91
15670;BME280;18524;45.190;5.732;2022-10-20T22:55:18;98932.38;;;20.66;65.19
15670;BME280;18524;45.190;5.732;2022-10-20T23:00:09;98931.16;;;20.69;64.90
15670;BME280;18524;45.190;5.732;2022-10-20T23:05:00;98934.41;;;20.64;64.94
15670;BME280;18524;45.190;5.732;2022-10-20T23:09:50;98924.63;;;20.71;64.73
15670;BME280;18524;45.190;5.732;2022-10-20T23:14:41;98925.13;;;20.81;64.36
15670;BME280;18524;45.190;5.732;2022-10-20T23:19:31;98910.88;;;21.02;63.42
15670;BME280;18524;45.190;5.732;2022-10-20T23:24:21;98902.03;;;20.95;63.76
15670;BME280;18524;45.190;5.732;2022-10-20T23:29:12;98897.63;;;21.15;62.04
15670;BME280;18524;45.190;5.732;2022-10-20T23:34:02;98892.03;;;21.04;62.85
15670;BME280;18524;45.190;5.732;2022-10-20T23:38:53;98883.72;;;20.85;63.55
15670;BME280;18524;45.190;5.732;2022-10-20T23:43:43;98879.53;;;20.76;63.91
15670;BME280;18524;45.190;5.732;2022-10-20T23:48:34;98865.97;;;20.71;63.84
15670;BME280;18524;45.190;5.732;2022-10-20T23:53:24;98872.88;;;20.87;62.66
15670;BME280;18524;45.190;5.732;2022-10-20T23:58:15;98870.00;;;20.88;62.36
